Time;durP1;ratioP1;P1;durP2;ratioP2;P2;SDS_P1;SDS_P2;PMS_P1;PMS_P2;Temp;Humidity;BMP_temperature;BMP_pressure;BME280_temperature;BME280_humidity;BME280_pressure;Samples;Min_cycle;Max_cycle;Signal;HPM_P1;HPM_P2
2021/05/07 00:01:31;;;;;;;6.20;4.60;;;8.50;84.00;;;;;;5007714;28;20456;-46
2021/05/07 00:03:57;;;;;;;5.47;4.97;;;8.40;84.10;;;;;;5006520;28;20555;-46
2021/05/07 00:06:23;;;;;;;5.87;3.80;;;8.40;84.20;;;;;;5003068;28;20463;-46
2021/05/07 00:08:49;;;;;;;6.23;4.63;;;8.40;84.40;;;;;;5006413;28;20835;-46
2021/05/07 00:11:18;;;;;;;6.33;4.90;;;8.40;84.60;;;;;;5008642;28;20454;-46
2021/05/07 00:13:45;;;;;;;6.23;4.43;;;8.40;84.60;;;;;;5009620;28;20979;-46
2021/05/07 00:16:12;;;;;;;4.27;3.67;;;8.40;84.70;;;;;;5007032;28;20491;-46
2021/05/07 00:18:39;;;;;;;4.93;4.27;;;8.40;84.90;;;;;;5006048;28;20465;-46
2021/05/07 00:21:06;;;;;;;6.73;5.27;;;8.40;84.80;;;;;;5011329;28;20985;-46
2021/05/07 00:23:34;;;;;;;5.63;4.60;;;8.40;84.90;;;;;;5006063;28;20464;-46
2021/05/07 00:26:00;;;;;;;5.10;4.43;;;8.40;84.40;;;;;;5006660;28;20544;-46
2021/05/07 00:28:27;;;;;;;4.07;3.67;;;8.40;84.50;;;;;;5002170;28;20960;-46
2021/05/07 00:30:53;;;;;;;7.67;5.50;;;8.40;84.40;;;;;;5007427;28;20464;-47
2021/05/07 00:33:19;;;;;;;6.33;5.07;;;8.40;84.40;;;;;;5037882;28;20472;-46
2021/05/07 00:35:45;;;;;;;5.90;4.73;;;8.30;84.70;;;;;;5007389;28;20483;-46
2021/05/07 00:38:12;;;;;;;5.60;4.67;;;8.40;84.70;;;;;;5009917;28;20456;-46
2021/05/07 00:40:38;;;;;;;4.33;3.93;;;8.40;84.60;;;;;;5023902;28;20979;-46
2021/05/07 00:43:05;;;;;;;5.23;4.73;;;8.40;84.70;;;;;;5006759;28;20460;-46
2021/05/07 00:45:31;;;;;;;5.40;4.63;;;8.40;84.60;;;;;;5004762;28;20456;-46
2021/05/07 00:48:06;;;;;;;6.20;4.87;;;8.40;84.70;;;;;;5009359;28;20464;-46
2021/05/07 00:50:34;;;;;;;5.57;3.90;;;8.40;84.90;;;;;;5003747;28;20732;-46
2021/05/07 00:53:01;;;;;;;4.37;3.97;;;8.40;84.70;;;;;;5006109;28;20457;-46
2021/05/07 00:55:27;;;;;;;4.90;4.40;;;8.40;84.90;;;;;;5006155;28;20466;-46
2021/05/07 00:57:55;;;;;;;6.50;4.90;;;8.30;84.90;;;;;;5023667;28;20471;-46
2021/05/07 01:00:23;;;;;;;7.00;5.17;;;8.40;84.90;;;;;;5004606;28;20663;-46
2021/05/07 01:02:50;;;;;;;4.73;4.20;;;8.40;84.60;;;;;;5005709;28;20455;-46
2021/05/07 01:05:17;;;;;;;5.60;4.47;;;8.40;84.70;;;;;;5006760;28;20527;-46
2021/05/07 01:07:44;;;;;;;6.00;4.70;;;8.30;84.70;;;;;;5007153;28;20965;-46
2021/05/07 01:10:12;;;;;;;5.40;4.80;;;8.30;84.90;;;;;;5006030;28;20820;-46
2021/05/07 01:12:40;;;;;;;5.70;4.23;;;8.30;85.00;;;;;;5008579;28;20547;-46
2021/05/07 01:15:24;;;;;;;6.97;4.53;;;8.40;85.20;;;;;;4999940;28;20572;-46
2021/05/07 01:17:53;;;;;;;6.90;5.23;;;8.40;85.00;;;;;;5006384;28;20453;-46
2021/05/07 01:20:23;;;;;;;5.40;4.70;;;8.40;84.80;;;;;;5011850;28;20855;-46
2021/05/07 01:22:58;;;;;;;4.50;4.10;;;8.30;84.90;;;;;;5012297;28;20467;-46
2021/05/07 01:25:39;;;;;;;5.90;5.30;;;8.40;84.90;;;;;;5013993;28;20462;-46
2021/05/07 01:28:07;;;;;;;7.17;5.70;;;8.30;84.90;;;;;;5014240;28;20456;-46
2021/05/07 01:30:36;;;;;;;6.03;4.93;;;8.30;85.00;;;;;;5013554;28;20468;-46
2021/05/07 01:33:03;;;;;;;6.80;5.40;;;8.30;85.10;;;;;;5011675;28;20912;-46
2021/05/07 01:35:34;;;;;;;5.90;5.30;;;8.40;85.10;;;;;;5011958;28;20475;-46
2021/05/07 01:38:05;;;;;;;6.63;5.80;;;8.40;84.60;;;;;;5013153;28;20485;-46
2021/05/07 01:40:34;;;;;;;6.97;6.17;;;8.40;84.30;;;;;;5014383;28;20450;-46
2021/05/07 01:43:04;;;;;;;6.03;5.33;;;8.40;84.30;;;;;;5012079;28;20536;-46
2021/05/07 01:45:35;;;;;;;6.03;5.00;;;8.40;84.40;;;;;;5014638;28;20467;-46
2021/05/07 01:48:03;;;;;;;5.50;4.90;;;8.40;84.40;;;;;;5010604;28;20488;-46
2021/05/07 01:50:32;;;;;;;6.93;5.80;;;8.40;84.20;;;;;;5012498;28;20495;-46
2021/05/07 01:52:59;;;;;;;6.43;5.50;;;8.40;84.10;;;;;;5010419;28;20543;-46
2021/05/07 01:55:34;;;;;;;5.97;5.40;;;8.30;84.30;;;;;;5012604;28;20456;-46
2021/05/07 01:58:02;;;;;;;9.17;7.03;;;8.40;83.90;;;;;;5013953;28;20467;-46
2021/05/07 02:00:29;;;;;;;8.67;6.30;;;8.30;83.90;;;;;;5011974;28;20479;-46
2021/05/07 02:02:57;;;;;;;8.07;6.40;;;8.30;84.00;;;;;;5014101;28;20460;-46
2021/05/07 02:05:27;;;;;;;11.10;6.70;;;8.30;84.00;;;;;;5012446;28;20824;-46
2021/05/07 02:07:54;;;;;;;7.97;6.50;;;8.30;84.00;;;;;;5011648;28;20466;-46
2021/05/07 02:10:24;;;;;;;7.63;6.57;;;8.30;84.00;;;;;;5011877;28;20452;-44
2021/05/07 02:12:58;;;;;;;7.63;6.67;;;8.30;84.30;;;;;;5008168;28;20452;-44
2021/05/07 02:15:26;;;;;;;9.27;7.60;;;8.30;84.20;;;;;;5006345;28;20509;-44
2021/05/07 02:17:53;;;;;;;10.10;6.87;;;8.40;84.00;;;;;;5011899;28;20980;-44
2021/05/07 02:20:22;;;;;;;9.67;7.60;;;8.40;83.90;;;;;;5012290;28;20502;-44
2021/05/07 02:22:50;;;;;;;9.03;6.30;;;8.30;84.10;;;;;;5009499;28;20460;-44
2021/05/07 02:25:18;;;;;;;6.50;5.73;;;8.30;84.30;;;;;;5009649;28;20452;-44
2021/05/07 02:27:46;;;;;;;8.90;6.30;;;8.40;84.50;;;;;;5007687;28;20681;-44
2021/05/07 02:30:14;;;;;;;6.87;5.23;;;8.40;84.40;;;;;;5010922;28;20959;-44
2021/05/07 02:32:41;;;;;;;7.90;6.33;;;8.40;84.40;;;;;;5004515;28;20464;-44
2021/05/07 02:35:08;;;;;;;7.53;6.17;;;8.40;84.20;;;;;;5009296;28;20465;-44
2021/05/07 02:37:34;;;;;;;7.57;6.40;;;8.50;84.00;;;;;;5007587;28;20833;-44
2021/05/07 02:40:01;;;;;;;6.80;5.87;;;8.40;84.10;;;;;;5009973;28;20825;-44
2021/05/07 02:42:27;;;;;;;10.90;6.90;;;8.40;84.30;;;;;;5005174;28;20457;-44
2021/05/07 02:44:53;;;;;;;10.13;7.67;;;8.50;84.40;;;;;;5002411;28;20466;-44
2021/05/07 02:47:20;;;;;;;12.13;9.20;;;8.50;83.30;;;;;;5024956;28;20993;-44
2021/05/07 02:49:47;;;;;;;11.50;9.33;;;8.50;82.40;;;;;;5006632;28;20480;-44
2021/05/07 02:52:14;;;;;;;15.03;11.60;;;8.40;81.40;;;;;;5006401;28;20462;-44
2021/05/07 02:54:41;;;;;;;16.27;10.93;;;8.40;81.50;;;;;;5007404;28;20498;-45
2021/05/07 02:57:08;;;;;;;16.00;11.93;;;8.30;81.30;;;;;;5004606;28;20488;-46
2021/05/07 02:59:34;;;;;;;16.93;12.93;;;8.30;80.80;;;;;;5006763;28;20479;-46
2021/05/07 03:02:01;;;;;;;18.60;12.80;;;8.20;80.90;;;;;;5003619;28;21332;-46
2021/05/07 03:04:27;;;;;;;17.00;13.10;;;8.20;81.10;;;;;;5008098;28;20468;-46
2021/05/07 03:06:53;;;;;;;16.90;13.03;;;8.20;81.30;;;;;;5009009;28;20460;-46
2021/05/07 03:09:19;;;;;;;18.33;13.57;;;8.10;81.20;;;;;;5006443;28;20466;-46
2021/05/07 03:11:46;;;;;;;22.00;15.40;;;8.20;81.30;;;;;;5006990;28;20545;-46
2021/05/07 03:14:13;;;;;;;21.70;15.87;;;8.10;81.20;;;;;;5001747;28;20548;-46
2021/05/07 03:16:39;;;;;;;18.67;14.30;;;8.10;81.00;;;;;;5005924;28;20488;-46
2021/05/07 03:19:06;;;;;;;19.97;15.47;;;8.10;80.00;;;;;;5007326;28;21022;-46
2021/05/07 03:21:33;;;;;;;21.47;16.63;;;8.00;80.20;;;;;;5004532;28;20490;-46
2021/05/07 03:24:00;;;;;;;21.10;15.07;;;8.10;80.60;;;;;;5003298;28;20722;-46
2021/05/07 03:26:26;;;;;;;18.03;13.40;;;8.10;80.90;;;;;;5021518;28;20829;-46
2021/05/07 03:28:53;;;;;;;19.07;14.90;;;8.00;80.60;;;;;;5009001;28;20464;-46
2021/05/07 03:31:19;;;;;;;19.33;14.60;;;8.00;80.70;;;;;;5006081;28;20462;-46
2021/05/07 03:33:47;;;;;;;20.17;14.47;;;8.00;80.40;;;;;;5004181;28;20886;-46
2021/05/07 03:36:14;;;;;;;18.43;14.00;;;8.00;80.30;;;;;;5004408;28;20491;-46
2021/05/07 03:38:40;;;;;;;19.10;14.00;;;8.00;80.30;;;;;;5006597;28;20522;-46
2021/05/07 03:41:07;;;;;;;18.50;14.13;;;7.90;80.20;;;;;;5006946;28;20462;-46
2021/05/07 03:43:34;;;;;;;19.67;13.80;;;7.90;79.60;;;;;;5003269;28;20460;-46
2021/05/07 03:46:00;;;;;;;18.03;14.07;;;7.90;78.70;;;;;;5005160;28;20480;-46
2021/05/07 03:48:27;;;;;;;18.53;14.10;;;7.80;78.50;;;;;;5005774;28;20463;-46
2021/05/07 03:50:54;;;;;;;17.53;13.53;;;7.80;78.70;;;;;;5003367;28;20575;-46
2021/05/07 03:53:22;;;;;;;18.10;14.33;;;7.80;78.90;;;;;;5000318;28;20457;-46
2021/05/07 03:55:49;;;;;;;19.60;14.40;;;7.70;78.80;;;;;;5007087;28;20492;-46
2021/05/07 03:58:16;;;;;;;20.93;14.67;;;7.70;78.90;;;;;;5000561;28;20456;-46
2021/05/07 04:00:42;;;;;;;20.67;15.47;;;7.70;78.80;;;;;;5003384;28;20463;-46
2021/05/07 04:03:09;;;;;;;22.00;15.87;;;7.70;79.00;;;;;;5005046;28;20543;-46
2021/05/07 04:05:36;;;;;;;21.60;14.70;;;7.60;78.80;;;;;;5003889;28;21082;-46
2021/05/07 04:08:15;;;;;;;21.33;15.67;;;7.60;78.90;;;;;;5002577;28;20815;-46
2021/05/07 04:10:43;;;;;;;19.87;14.23;;;7.50;78.80;;;;;;5007702;28;20475;-46
2021/05/07 04:15:56;;;;;;;22.20;15.80;;;7.50;78.70;;;;;;5000274;28;20567;-46
2021/05/07 04:18:22;;;;;;;22.67;16.07;;;7.50;78.70;;;;;;5000558;28;20456;-46
2021/05/07 04:20:48;;;;;;;21.87;14.27;;;7.50;78.60;;;;;;5002851;28;20874;-46
2021/05/07 04:23:16;;;;;;;21.70;15.67;;;7.50;78.10;;;;;;5017792;28;20514;-46
2021/05/07 04:25:42;;;;;;;18.40;14.37;;;7.40;78.40;;;;;;5004085;28;20844;-46
2021/05/07 04:28:08;;;;;;;19.80;14.40;;;7.40;78.60;;;;;;5004888;28;20937;-46
2021/05/07 04:30:35;;;;;;;23.13;16.10;;;7.40;79.10;;;;;;5020021;28;20452;-46
2021/05/07 04:33:01;;;;;;;19.30;14.80;;;7.40;78.50;;;;;;5001419;28;20461;-46
2021/05/07 04:35:27;;;;;;;25.60;15.17;;;7.40;78.20;;;;;;5002850;28;20457;-46
2021/05/07 04:37:54;;;;;;;18.47;14.10;;;7.40;78.20;;;;;;5030013;28;20867;-46
2021/05/07 04:40:20;;;;;;;21.63;15.20;;;7.40;78.50;;;;;;5002967;28;20465;-46
2021/05/07 04:42:46;;;;;;;28.87;18.87;;;7.40;78.40;;;;;;5000873;28;20470;-46
2021/05/07 04:45:13;;;;;;;26.87;18.27;;;7.40;79.00;;;;;;5004421;28;20551;-46
2021/05/07 04:47:39;;;;;;;24.73;16.80;;;7.40;79.30;;;;;;5002792;28;20565;-46
2021/05/07 04:50:06;;;;;;;23.70;17.00;;;7.40;79.60;;;;;;5005946;28;20465;-46
2021/05/07 04:52:34;;;;;;;24.83;17.93;;;7.50;79.90;;;;;;5001896;28;20466;-46
2021/05/07 04:55:00;;;;;;;23.90;15.07;;;7.50;80.10;;;;;;5003137;28;20555;-46
2021/05/07 04:57:30;;;;;;;22.00;15.60;;;7.50;80.40;;;;;;5004887;28;20491;-46
2021/05/07 04:59:56;;;;;;;21.70;14.87;;;7.50;80.60;;;;;;5001498;28;20511;-46
2021/05/07 05:02:22;;;;;;;23.97;15.87;;;7.50;81.00;;;;;;5005228;28;20449;-46
2021/05/07 05:04:50;;;;;;;19.67;14.77;;;7.60;81.00;;;;;;5006773;28;20891;-46
2021/05/07 05:07:17;;;;;;;23.33;14.90;;;7.70;81.00;;;;;;5003673;28;20460;-46
2021/05/07 05:09:44;;;;;;;21.93;15.50;;;7.70;80.70;;;;;;5006409;28;20540;-46
2021/05/07 05:12:10;;;;;;;19.73;14.00;;;7.70;80.60;;;;;;5006902;28;20456;-46
2021/05/07 05:14:36;;;;;;;20.70;14.77;;;7.70;80.10;;;;;;5005515;28;20460;-46
2021/05/07 05:17:03;;;;;;;23.07;13.30;;;7.70;80.10;;;;;;5004720;28;20500;-46
2021/05/07 05:19:29;;;;;;;20.87;14.17;;;7.70;80.20;;;;;;5006063;28;20456;-46
2021/05/07 05:21:55;;;;;;;17.00;12.30;;;7.70;79.70;;;;;;5020859;28;20475;-46
2021/05/07 05:24:22;;;;;;;17.43;12.60;;;7.80;79.70;;;;;;5004387;28;20470;-46
2021/05/07 05:26:48;;;;;;;16.53;11.83;;;7.80;79.70;;;;;;5004094;28;20985;-46
2021/05/07 05:29:15;;;;;;;18.93;13.77;;;7.80;79.70;;;;;;5002428;28;20460;-46
2021/05/07 05:31:43;;;;;;;18.90;13.10;;;7.90;79.50;;;;;;5000608;28;20559;-46
2021/05/07 05:34:09;;;;;;;16.67;12.20;;;7.90;79.90;;;;;;5001505;28;20498;-46
2021/05/07 05:36:36;;;;;;;15.73;11.40;;;7.90;79.60;;;;;;5007796;28;20499;-46
2021/05/07 05:39:04;;;;;;;17.77;11.37;;;7.90;79.40;;;;;;5006430;28;20456;-46
2021/05/07 05:41:30;;;;;;;15.80;11.27;;;7.90;79.20;;;;;;5007859;28;20466;-46
2021/05/07 05:43:57;;;;;;;16.00;11.57;;;7.90;79.50;;;;;;5007585;28;20455;-46
2021/05/07 05:46:23;;;;;;;14.87;10.33;;;7.90;79.10;;;;;;5005945;28;20460;-46
2021/05/07 05:48:50;;;;;;;15.37;11.23;;;8.00;78.00;;;;;;5001085;28;20877;-46
2021/05/07 05:51:16;;;;;;;15.97;11.47;;;8.00;78.00;;;;;;5001395;28;20461;-46
2021/05/07 05:53:42;;;;;;;16.07;11.17;;;8.00;78.50;;;;;;5003011;28;20463;-46
2021/05/07 05:56:08;;;;;;;18.07;12.33;;;8.10;79.00;;;;;;5005594;28;20484;-46
2021/05/07 05:58:34;;;;;;;14.63;10.40;;;8.10;78.50;;;;;;4998869;28;20456;-46
2021/05/07 06:01:01;;;;;;;14.07;10.90;;;8.10;78.10;;;;;;5003137;28;20468;-47
2021/05/07 06:03:27;;;;;;;13.87;11.27;;;8.10;78.00;;;;;;5006532;28;20954;-46
2021/05/07 06:05:53;;;;;;;14.80;11.27;;;8.10;78.10;;;;;;5002628;28;20470;-47
2021/05/07 06:08:22;;;;;;;16.87;11.40;;;8.20;77.40;;;;;;5008136;28;20516;-45
2021/05/07 06:10:48;;;;;;;16.07;10.77;;;8.20;76.70;;;;;;5007063;28;20465;-46
2021/05/07 06:13:14;;;;;;;13.10;9.17;;;8.20;76.60;;;;;;5008022;28;20495;-46
2021/05/07 06:15:41;;;;;;;13.73;11.10;;;8.30;76.20;;;;;;5016259;28;20481;-45
2021/05/07 06:18:07;;;;;;;12.80;10.23;;;8.30;75.50;;;;;;5011308;28;20896;-46
2021/05/07 06:20:33;;;;;;;15.30;11.00;;;8.40;76.00;;;;;;5011822;28;20458;-47
2021/05/07 06:23:00;;;;;;;14.00;10.03;;;8.40;73.90;;;;;;5005924;28;20456;-46
2021/05/07 06:25:26;;;;;;;15.33;10.93;;;8.40;74.60;;;;;;5007829;28;20457;-46
2021/05/07 06:27:53;;;;;;;13.30;11.10;;;8.40;75.70;;;;;;5008950;28;20938;-46
2021/05/07 06:30:19;;;;;;;15.57;9.73;;;8.50;75.50;;;;;;5011466;28;20449;-47
2021/05/07 06:32:46;;;;;;;14.63;11.03;;;8.60;74.50;;;;;;5007870;28;20475;-46
2021/05/07 06:35:13;;;;;;;14.70;11.53;;;8.70;74.80;;;;;;5011966;28;20464;-46
2021/05/07 06:37:42;;;;;;;16.50;10.93;;;8.70;73.70;;;;;;5007314;28;20554;-46
2021/05/07 06:40:09;;;;;;;15.90;11.80;;;8.80;72.00;;;;;;5013529;28;20441;-46
2021/05/07 06:42:38;;;;;;;13.13;10.43;;;8.80;71.50;;;;;;5012126;28;20445;-46
2021/05/07 06:45:06;;;;;;;17.70;11.30;;;9.00;71.30;;;;;;5007232;28;20448;-47
2021/05/07 06:47:33;;;;;;;16.73;10.27;;;9.00;70.50;;;;;;5009811;28;20876;-47
2021/05/07 06:49:59;;;;;;;14.10;9.97;;;9.00;70.40;;;;;;5005786;28;20535;-47
2021/05/07 06:52:25;;;;;;;15.80;11.67;;;9.10;71.70;;;;;;5007890;28;20491;-47
2021/05/07 06:54:52;;;;;;;13.60;11.00;;;9.10;69.80;;;;;;5031617;28;20460;-47
2021/05/07 06:57:18;;;;;;;13.40;10.70;;;9.10;69.20;;;;;;5008189;28;20480;-47
2021/05/07 06:59:47;;;;;;;13.60;10.80;;;9.20;69.50;;;;;;5007096;28;20456;-47
2021/05/07 07:02:15;;;;;;;15.77;12.70;;;9.20;69.50;;;;;;5021864;28;20845;-47
2021/05/07 07:04:42;;;;;;;14.93;11.40;;;9.30;68.00;;;;;;5005980;28;20832;-47
2021/05/07 07:07:10;;;;;;;16.67;11.60;;;9.40;68.50;;;;;;5009765;28;20548;-47
2021/05/07 07:09:36;;;;;;;14.07;10.47;;;9.40;68.40;;;;;;5007200;28;20571;-47
2021/05/07 07:12:03;;;;;;;14.33;11.07;;;9.50;68.20;;;;;;5010795;28;20829;-47
2021/05/07 07:14:29;;;;;;;14.37;11.20;;;9.60;68.30;;;;;;5006062;28;20843;-47
2021/05/07 07:16:55;;;;;;;13.37;10.37;;;9.70;69.20;;;;;;5005677;28;20715;-47
2021/05/07 07:19:22;;;;;;;16.77;11.63;;;9.80;67.40;;;;;;5007708;28;20967;-47
2021/05/07 07:22:01;;;;;;;14.17;10.80;;;9.90;67.60;;;;;;5009547;28;20459;-47
2021/05/07 07:24:28;;;;;;;14.53;11.50;;;10.00;66.90;;;;;;5005219;28;20875;-47
2021/05/07 07:26:54;;;;;;;14.17;9.80;;;10.10;67.80;;;;;;5020863;28;20472;-47
2021/05/07 07:29:21;;;;;;;16.03;10.90;;;10.20;66.90;;;;;;5022797;28;20531;-47
2021/05/07 07:31:48;;;;;;;14.27;10.63;;;10.30;66.60;;;;;;5023315;28;20460;-47
2021/05/07 07:34:14;;;;;;;15.57;11.50;;;10.40;66.10;;;;;;5006784;28;20469;-47
2021/05/07 07:36:41;;;;;;;13.90;9.97;;;10.50;66.20;;;;;;5007074;28;20555;-47
2021/05/07 07:39:10;;;;;;;11.73;9.20;;;10.70;64.20;;;;;;5006881;28;20491;-47
2021/05/07 07:41:36;;;;;;;12.30;9.73;;;10.80;63.70;;;;;;5006312;28;20507;-47
2021/05/07 07:44:03;;;;;;;10.20;8.60;;;10.90;62.00;;;;;;5008055;28;20464;-47
2021/05/07 07:46:30;;;;;;;15.57;10.87;;;11.00;61.90;;;;;;5002921;28;20464;-47
2021/05/07 07:48:57;;;;;;;11.37;9.17;;;11.10;61.80;;;;;;5004216;28;20817;-47
2021/05/07 07:51:29;;;;;;;12.20;8.97;;;11.20;60.60;;;;;;5006583;28;20478;-47
2021/05/07 07:53:58;;;;;;;13.07;9.70;;;11.20;61.40;;;;;;5002252;28;20472;-47
2021/05/07 07:56:25;;;;;;;11.87;8.70;;;11.40;62.00;;;;;;5002488;28;20484;-47
2021/05/07 07:58:52;;;;;;;11.47;9.27;;;11.50;60.50;;;;;;5021866;28;20465;-47
2021/05/07 08:01:18;;;;;;;13.53;9.77;;;11.60;59.70;;;;;;5021408;28;20484;-47
2021/05/07 08:03:45;;;;;;;13.27;9.93;;;11.70;59.90;;;;;;5002552;28;21396;-47
2021/05/07 08:06:11;;;;;;;10.50;9.13;;;11.80;59.60;;;;;;5002443;28;20492;-47
2021/05/07 08:08:38;;;;;;;11.73;9.00;;;11.90;59.70;;;;;;5002429;28;20469;-47
2021/05/07 08:11:04;;;;;;;14.77;8.80;;;11.90;59.90;;;;;;5005782;28;20547;-47
2021/05/07 08:13:31;;;;;;;11.30;8.63;;;11.90;60.30;;;;;;5007900;28;20464;-46
2021/05/07 08:15:58;;;;;;;11.80;9.37;;;12.00;59.10;;;;;;5002670;28;20915;-47
2021/05/07 08:18:24;;;;;;;12.60;8.37;;;12.10;57.70;;;;;;5004786;28;20471;-47
2021/05/07 08:20:50;;;;;;;9.93;8.00;;;12.20;57.00;;;;;;5010942;28;20467;-45
2021/05/07 08:23:17;;;;;;;9.20;8.27;;;12.30;57.30;;;;;;5003189;28;20487;-45
2021/05/07 08:25:43;;;;;;;10.67;8.80;;;12.50;57.00;;;;;;5016775;28;20464;-45
2021/05/07 08:28:09;;;;;;;8.27;7.33;;;12.60;56.40;;;;;;5021906;28;20549;-45
2021/05/07 08:30:35;;;;;;;11.30;8.27;;;12.70;55.70;;;;;;5006543;28;20941;-45
2021/05/07 08:33:02;;;;;;;9.00;8.00;;;12.80;56.10;;;;;;5005589;28;21196;-45
2021/05/07 08:35:29;;;;;;;8.70;7.30;;;12.90;54.50;;;;;;5004692;28;20949;-45
2021/05/07 08:37:55;;;;;;;9.60;7.93;;;13.10;55.50;;;;;;5005119;28;20481;-45
2021/05/07 08:40:21;;;;;;;9.83;7.90;;;13.30;54.20;;;;;;5006110;28;20528;-46
2021/05/07 08:42:48;;;;;;;8.97;8.00;;;13.40;54.30;;;;;;5003654;28;20452;-45
2021/05/07 08:45:15;;;;;;;9.77;8.07;;;13.60;53.40;;;;;;5002859;28;21014;-45
2021/05/07 08:47:54;;;;;;;10.60;8.73;;;13.70;52.20;;;;;;5002097;28;20804;-45
2021/05/07 08:50:21;;;;;;;10.37;8.43;;;13.90;51.90;;;;;;5006068;28;20452;-45
2021/05/07 08:52:49;;;;;;;11.03;8.00;;;14.00;51.20;;;;;;5003177;28;20471;-45
2021/05/07 08:55:15;;;;;;;11.97;9.30;;;14.00;50.00;;;;;;5003078;28;20457;-46
2021/05/07 08:57:42;;;;;;;11.23;8.87;;;14.20;51.90;;;;;;5004034;28;21079;-45
2021/05/07 09:00:10;;;;;;;10.30;8.70;;;14.30;52.50;;;;;;5007355;28;20819;-45
2021/05/07 09:02:39;;;;;;;9.73;8.23;;;14.60;52.40;;;;;;4996411;28;20456;-45
2021/05/07 09:05:05;;;;;;;9.90;8.90;;;14.70;49.50;;;;;;5001501;28;20464;-45
2021/05/07 09:07:33;;;;;;;9.17;7.10;;;14.50;50.20;;;;;;4999848;28;20472;-45
2021/05/07 09:10:01;;;;;;;7.67;6.33;;;14.30;50.80;;;;;;5000525;28;20453;-45
2021/05/07 09:12:37;;;;;;;6.53;5.00;;;14.20;49.40;;;;;;5004455;28;20909;-45
2021/05/07 09:15:06;;;;;;;8.30;6.47;;;14.00;48.80;;;;;;5002546;28;20460;-45
2021/05/07 09:17:35;;;;;;;9.40;6.93;;;13.80;48.30;;;;;;5003644;28;20541;-45
2021/05/07 09:20:11;;;;;;;7.23;6.00;;;13.60;49.60;;;;;;4999934;28;20471;-45
2021/05/07 09:22:39;;;;;;;10.90;7.80;;;13.30;50.60;;;;;;5016922;28;20463;-45
2021/05/07 09:25:17;;;;;;;8.20;7.20;;;13.10;51.60;;;;;;5002747;28;20465;-45
2021/05/07 09:27:44;;;;;;;8.37;6.80;;;12.90;52.30;;;;;;5006422;28;20452;-45
2021/05/07 09:30:31;;;;;;;8.57;6.77;;;12.90;51.50;;;;;;5002730;28;20882;-45
2021/05/07 09:32:57;;;;;;;8.53;5.27;;;12.90;51.40;;;;;;5004211;28;20455;-45
2021/05/07 09:35:28;;;;;;;4.80;4.00;;;12.80;49.20;;;;;;5006966;28;20539;-45
2021/05/07 09:38:04;;;;;;;4.87;4.37;;;13.00;49.40;;;;;;5006687;28;20483;-45
2021/05/07 09:40:31;;;;;;;7.60;4.77;;;13.40;47.50;;;;;;5004198;28;20457;-45
2021/05/07 09:43:13;;;;;;;7.33;4.60;;;13.70;46.80;;;;;;5009057;28;21030;-45
2021/05/07 09:45:47;;;;;;;7.70;6.07;;;13.70;46.80;;;;;;5005587;28;20972;-45
2021/05/07 09:48:22;;;;;;;5.80;4.90;;;13.50;48.60;;;;;;5009786;28;20540;-45
2021/05/07 09:50:50;;;;;;;4.70;2.30;;;13.30;48.70;;;;;;5003329;28;20463;-45
2021/05/07 09:53:23;;;;;;;1.40;0.93;;;12.90;52.10;;;;;;5005301;28;20556;-45
2021/05/07 09:55:53;;;;;;;1.13;1.00;;;12.30;56.60;;;;;;5006938;28;20460;-45
2021/05/07 09:58:19;;;;;;;4.10;1.37;;;11.80;59.50;;;;;;5007235;28;20496;-45
2021/05/07 10:00:46;;;;;;;1.70;1.47;;;11.20;61.50;;;;;;5007077;28;20878;-45
2021/05/07 10:03:12;;;;;;;1.93;1.30;;;10.80;63.40;;;;;;5010678;28;21310;-45
2021/05/07 10:05:39;;;;;;;3.10;1.47;;;10.50;65.40;;;;;;5010275;28;20476;-44
2021/05/07 10:08:07;;;;;;;2.00;1.60;;;10.20;67.30;;;;;;5009606;28;20450;-45
2021/05/07 10:10:37;;;;;;;3.10;2.17;;;10.10;68.40;;;;;;5010478;28;20487;-45
2021/05/07 10:13:07;;;;;;;3.27;2.30;;;9.90;70.70;;;;;;5000309;28;20467;-45
2021/05/07 10:15:37;;;;;;;3.63;2.70;;;9.80;70.80;;;;;;5001303;28;20479;-44
2021/05/07 10:18:05;;;;;;;3.73;2.90;;;9.80;71.10;;;;;;5005231;28;20492;-45
2021/05/07 10:20:37;;;;;;;3.37;2.87;;;10.00;72.10;;;;;;5005332;28;20468;-45
2021/05/07 10:23:20;;;;;;;3.10;2.17;;;10.40;71.80;;;;;;5006038;28;20463;-45
2021/05/07 10:26:07;;;;;;;3.00;2.70;;;11.00;70.30;;;;;;5011066;28;20513;-45
2021/05/07 10:28:48;;;;;;;3.60;3.30;;;11.60;69.10;;;;;;5008363;28;20460;-45
2021/05/07 10:31:17;;;;;;;4.03;3.20;;;12.00;65.80;;;;;;5005924;28;20460;-45
2021/05/07 10:33:59;;;;;;;4.60;4.07;;;12.30;66.00;;;;;;5007313;28;20470;-45
2021/05/07 10:36:42;;;;;;;5.87;4.60;;;12.70;65.10;;;;;;5010816;28;20492;-45
2021/05/07 10:39:22;;;;;;;5.17;4.03;;;13.00;65.20;;;;;;5007396;28;20489;-44
2021/05/07 10:41:50;;;;;;;4.73;4.00;;;13.40;63.50;;;;;;5006398;28;20467;-44
2021/05/07 10:44:21;;;;;;;6.67;5.17;;;13.50;61.90;;;;;;5008719;28;20452;-44
2021/05/07 10:47:08;;;;;;;4.83;4.17;;;13.50;61.40;;;;;;5007282;28;20472;-44
2021/05/07 10:49:38;;;;;;;6.43;4.23;;;13.20;62.80;;;;;;5008403;28;20463;-44
2021/05/07 10:52:07;;;;;;;5.30;3.93;;;12.90;62.50;;;;;;5007353;28;20471;-44
2021/05/07 10:54:46;;;;;;;5.23;4.50;;;12.50;61.60;;;;;;5008421;28;21123;-44
2021/05/07 10:57:29;;;;;;;5.30;4.80;;;12.20;62.10;;;;;;5025122;28;20485;-43
2021/05/07 11:00:03;;;;;;;6.23;4.90;;;12.00;64.20;;;;;;5008859;28;20486;-44
2021/05/07 11:02:42;;;;;;;5.90;5.20;;;11.90;64.50;;;;;;5010429;28;20453;-45
2021/05/07 11:05:10;;;;;;;5.93;4.60;;;11.80;65.90;;;;;;5008760;28;20558;-44
2021/05/07 11:07:36;;;;;;;6.50;5.80;;;11.90;65.20;;;;;;5022720;28;20539;-44
2021/05/07 11:10:06;;;;;;;4.90;4.27;;;11.90;68.00;;;;;;5009290;28;20494;-44
2021/05/07 11:12:32;;;;;;;6.37;3.80;;;12.00;66.30;;;;;;5008066;28;20483;-44
2021/05/07 11:14:59;;;;;;;5.93;4.00;;;12.00;63.60;;;;;;5007032;28;20472;-44
2021/05/07 11:17:25;;;;;;;4.77;4.37;;;12.00;63.20;;;;;;5009056;28;20488;-44
2021/05/07 11:19:53;;;;;;;5.10;4.40;;;12.20;62.80;;;;;;5007788;28;20964;-44
2021/05/07 11:22:28;;;;;;;4.50;4.10;;;12.30;59.20;;;;;;5007251;28;20456;-44
2021/05/07 11:24:55;;;;;;;5.03;4.20;;;12.20;59.60;;;;;;5006852;28;21074;-45
2021/05/07 11:27:28;;;;;;;5.00;3.90;;;12.20;59.80;;;;;;5006223;28;20464;-45
2021/05/07 11:30:03;;;;;;;4.53;4.13;;;12.20;61.10;;;;;;5007475;28;20515;-44
2021/05/07 11:32:30;;;;;;;4.43;4.03;;;12.20;60.70;;;;;;5005487;28;20598;-45
2021/05/07 11:34:59;;;;;;;4.30;3.90;;;12.20;59.30;;;;;;5008160;28;20452;-45
2021/05/07 11:37:27;;;;;;;5.03;4.20;;;12.20;58.60;;;;;;5009953;28;20500;-45
2021/05/07 11:40:10;;;;;;;4.50;3.90;;;12.30;58.70;;;;;;5010714;28;20461;-45
2021/05/07 11:42:42;;;;;;;4.20;3.77;;;12.30;58.30;;;;;;5009209;28;20463;-45
2021/05/07 11:45:21;;;;;;;4.10;3.80;;;12.30;57.30;;;;;;5009064;28;20460;-45
2021/05/07 11:47:48;;;;;;;5.27;4.10;;;12.40;57.60;;;;;;5005327;28;20492;-45
2021/05/07 11:50:20;;;;;;;5.60;4.40;;;12.40;58.40;;;;;;5008309;28;21144;-45
2021/05/07 11:52:48;;;;;;;3.77;3.47;;;12.40;57.20;;;;;;5007769;28;20524;-45
2021/05/07 11:55:20;;;;;;;3.73;3.43;;;12.30;56.50;;;;;;5008406;28;20463;-45
2021/05/07 11:57:59;;;;;;;4.40;4.00;;;12.30;56.10;;;;;;5001583;28;20595;-45
2021/05/07 12:00:27;;;;;;;5.10;3.90;;;12.30;56.00;;;;;;5007119;28;20535;-47
2021/05/07 12:03:15;;;;;;;4.20;3.90;;;12.20;55.30;;;;;;5005631;28;20444;-47
2021/05/07 12:05:44;;;;;;;5.10;4.70;;;12.00;56.70;;;;;;5005315;28;20464;-47
2021/05/07 12:08:12;;;;;;;5.33;4.43;;;12.00;56.20;;;;;;5006139;28;20464;-47
2021/05/07 12:10:41;;;;;;;4.93;4.20;;;12.00;56.20;;;;;;5007492;28;20468;-47
2021/05/07 12:13:09;;;;;;;4.70;4.40;;;12.00;56.90;;;;;;5009776;28;20495;-47
2021/05/07 12:15:47;;;;;;;4.77;4.37;;;12.10;57.80;;;;;;5005849;28;20563;-47
2021/05/07 12:18:16;;;;;;;4.60;4.30;;;12.20;57.00;;;;;;5009533;28;20587;-47
2021/05/07 12:20:45;;;;;;;4.80;4.40;;;12.20;56.70;;;;;;5007285;28;20566;-47
2021/05/07 12:23:11;;;;;;;5.20;4.73;;;12.30;56.50;;;;;;5005121;28;20460;-47
2021/05/07 12:25:49;;;;;;;4.63;4.30;;;12.40;55.30;;;;;;5006897;28;20543;-46
2021/05/07 12:28:17;;;;;;;5.17;4.77;;;12.40;54.60;;;;;;5005281;28;20499;-46
2021/05/07 12:30:45;;;;;;;5.00;4.60;;;12.50;55.00;;;;;;5008850;28;20470;-46
2021/05/07 12:33:19;;;;;;;6.10;4.37;;;12.60;56.00;;;;;;5009972;28;20522;-46
2021/05/07 12:35:50;;;;;;;4.70;4.40;;;12.70;54.80;;;;;;5010882;28;20460;-46
2021/05/07 12:38:22;;;;;;;4.17;3.87;;;12.70;53.90;;;;;;5022323;28;20550;-46
2021/05/07 12:40:49;;;;;;;6.33;4.17;;;12.80;52.80;;;;;;5009986;28;20937;-46
2021/05/07 12:43:15;;;;;;;4.30;4.00;;;12.90;53.40;;;;;;5008457;28;20516;-46
2021/05/07 12:45:49;;;;;;;15.90;5.37;;;12.90;53.10;;;;;;5008484;28;20472;-46
2021/05/07 12:48:29;;;;;;;3.80;3.50;;;13.00;53.00;;;;;;5010128;28;20814;-46
2021/05/07 12:51:01;;;;;;;4.77;4.37;;;13.10;52.10;;;;;;5006801;28;20459;-46
2021/05/07 12:53:28;;;;;;;5.10;4.67;;;13.20;51.70;;;;;;5005693;28;20961;-46